Time;durP1;ratioP1;P1;durP2;ratioP2;P2;SDS_P1;SDS_P2;PMS_P1;PMS_P2;Temp;Humidity;BMP_temperature;BMP_pressure;BME280_temperature;BME280_humidity;BME280_pressure;Samples;Min_cycle;Max_cycle;Signal;HPM_P1;HPM_P2
2023/04/11 00:00:41;;;;;;;;;;;;;;;13.62;66.54;100434.88;1041085;28;1292;-67
2023/04/11 00:01:31;;;;;;;;;;;;;;;13.58;66.73;100439.66;1044362;28;1464;-67
2023/04/11 00:02:21;;;;;;;;;;;;;;;13.57;65.99;100439.78;1044795;28;1325;-67
2023/04/11 00:03:12;;;;;;;;;;;;;;;13.52;66.31;100432.13;1041634;28;703;-67
2023/04/11 00:04:02;;;;;;;;;;;;;;;13.57;68.66;100435.28;1040638;28;1401;-67
2023/04/11 00:04:53;;;;;;;;;;;;;;;13.59;68.15;100435.16;1040868;28;1329;-67
2023/04/11 00:05:44;;;;;;;;;;;;;;;13.70;68.45;100437.75;1043396;28;1522;-67
2023/04/11 00:06:34;;;;;;;;;;;;;;;13.88;68.56;100438.88;1041645;28;1301;-67
2023/04/11 00:07:25;;;;;;;;;;;;;;;13.78;65.78;100435.31;1044659;28;1113;-67
2023/04/11 00:08:15;;;;;;;;;;;;;;;13.72;66.46;100431.31;1041730;28;709;-67
2023/04/11 00:09:06;;;;;;;;;;;;;;;13.65;66.62;100434.63;1041594;28;705;-67
2023/04/11 00:09:56;;;;;;;;;;;;;;;13.73;67.04;100432.16;1040831;28;1420;-66
2023/04/11 00:10:47;;;;;;;;;;;;;;;13.83;68.96;100441.09;1044287;28;1278;-66
2023/04/11 00:11:37;;;;;;;;;;;;;;;13.72;66.58;100433.97;1041258;28;1509;-66
2023/04/11 00:12:27;;;;;;;;;;;;;;;13.57;67.77;100437.09;1043744;28;1388;-66
2023/04/11 00:13:18;;;;;;;;;;;;;;;13.81;68.50;100437.69;1041695;28;1234;-66
2023/04/11 00:14:09;;;;;;;;;;;;;;;13.82;67.66;100439.41;1043955;28;1613;-67
2023/04/11 00:15:00;;;;;;;;;;;;;;;13.92;67.92;100443.00;1043305;28;1398;-67
2023/04/11 00:15:54;;;;;;;;;;;;;;;13.80;66.50;100436.00;1044100;28;1554;-66
2023/04/11 00:16:44;;;;;;;;;;;;;;;13.73;65.73;100445.53;1043081;28;1265;-67
2023/04/11 00:17:36;;;;;;;;;;;;;;;13.60;66.30;100440.38;1044018;28;1523;-67
2023/04/11 00:18:26;;;;;;;;;;;;;;;13.55;67.97;100426.53;1042593;28;1914;-65
2023/04/11 00:19:17;;;;;;;;;;;;;;;13.46;66.71;100433.47;1044972;28;1286;-66
2023/04/11 00:20:07;;;;;;;;;;;;;;;13.37;68.17;100436.94;1043854;28;1535;-66
2023/04/11 00:20:57;;;;;;;;;;;;;;;13.49;68.39;100429.69;1044953;28;1381;-67
2023/04/11 00:21:48;;;;;;;;;;;;;;;13.54;66.91;100425.69;1044285;28;1566;-68
2023/04/11 00:22:39;;;;;;;;;;;;;;;13.63;68.25;100433.88;1040173;28;677;-67
2023/04/11 00:23:29;;;;;;;;;;;;;;;13.72;66.53;100428.63;1041928;28;1286;-67
2023/04/11 00:24:20;;;;;;;;;;;;;;;13.70;68.62;100435.09;1040911;28;1372;-67
2023/04/11 00:25:10;;;;;;;;;;;;;;;13.69;66.66;100428.03;1044303;28;1420;-67
2023/04/11 00:26:00;;;;;;;;;;;;;;;13.48;65.45;100425.31;1043838;28;678;-67
2023/04/11 00:26:51;;;;;;;;;;;;;;;13.35;66.24;100430.00;1043923;28;1393;-66
2023/04/11 00:27:41;;;;;;;;;;;;;;;13.27;67.49;100432.47;1044342;28;1480;-66
2023/04/11 00:28:32;;;;;;;;;;;;;;;13.44;69.62;100430.09;1041528;28;603;-67
2023/04/11 00:29:22;;;;;;;;;;;;;;;13.53;67.31;100429.31;1044389;28;988;-66
2023/04/11 00:30:13;;;;;;;;;;;;;;;13.42;66.26;100429.38;1042085;28;701;-66
2023/04/11 00:31:03;;;;;;;;;;;;;;;13.32;66.43;100428.44;1040556;28;678;-66
2023/04/11 00:31:55;;;;;;;;;;;;;;;13.35;68.15;100428.19;1042196;28;712;-66
2023/04/11 00:32:46;;;;;;;;;;;;;;;13.43;68.83;100438.28;1041142;28;1207;-66
2023/04/11 00:33:37;;;;;;;;;;;;;;;13.58;67.24;100430.78;1041633;28;1376;-66
2023/04/11 00:34:27;;;;;;;;;;;;;;;13.57;66.05;100439.78;1041810;28;1334;-67
2023/04/11 00:35:17;;;;;;;;;;;;;;;13.50;67.86;100437.59;1044402;28;1485;-67
2023/04/11 00:36:08;;;;;;;;;;;;;;;13.37;66.93;100431.59;1041230;28;1378;-67
2023/04/11 00:36:58;;;;;;;;;;;;;;;13.34;67.72;100434.50;1044023;28;1508;-67
2023/04/11 00:37:54;;;;;;;;;;;;;;;13.39;68.29;100442.16;1043317;28;1368;-67
2023/04/11 00:38:45;;;;;;;;;;;;;;;13.40;67.79;100434.00;1042360;28;1894;-67
2023/04/11 00:39:37;;;;;;;;;;;;;;;13.47;67.17;100439.69;1040497;28;1243;-67
2023/04/11 00:40:27;;;;;;;;;;;;;;;13.31;66.79;100445.47;1040401;28;1455;-67
2023/04/11 00:41:18;;;;;;;;;;;;;;;13.43;67.81;100441.78;1041028;28;1344;-67
2023/04/11 00:42:08;;;;;;;;;;;;;;;13.48;68.04;100436.03;1041290;28;1421;-67
2023/04/11 00:42:59;;;;;;;;;;;;;;;13.58;67.60;100441.47;1044140;28;1410;-67
2023/04/11 00:43:49;;;;;;;;;;;;;;;13.57;68.71;100429.06;1044187;28;1411;-66
2023/04/11 00:44:39;;;;;;;;;;;;;;;13.60;66.70;100442.22;1044790;28;693;-66
2023/04/11 00:45:30;;;;;;;;;;;;;;;13.40;67.38;100434.00;1044239;28;1460;-66
2023/04/11 00:46:20;;;;;;;;;;;;;;;13.38;67.17;100440.47;1042648;28;1345;-66
2023/04/11 00:47:11;;;;;;;;;;;;;;;13.39;68.66;100426.09;1041927;28;760;-66
2023/04/11 00:48:01;;;;;;;;;;;;;;;13.41;66.97;100433.03;1044968;28;1163;-66
2023/04/11 00:48:52;;;;;;;;;;;;;;;13.27;66.37;100440.47;1043291;28;1487;-66
2023/04/11 00:49:42;;;;;;;;;;;;;;;13.27;67.11;100430.63;1044849;28;866;-66
2023/04/11 00:50:33;;;;;;;;;;;;;;;13.24;68.09;100441.63;1044691;28;718;-66
2023/04/11 00:51:23;;;;;;;;;;;;;;;13.20;67.57;100438.34;1045901;28;670;-66
2023/04/11 00:52:14;;;;;;;;;;;;;;;13.15;67.58;100431.66;1043933;28;695;-66
2023/04/11 00:53:04;;;;;;;;;;;;;;;13.17;68.24;100433.22;1044929;28;625;-66
2023/04/11 00:53:54;;;;;;;;;;;;;;;13.26;67.37;100442.31;1041574;28;1202;-66
2023/04/11 00:54:45;;;;;;;;;;;;;;;13.30;69.20;100434.88;1040913;28;1547;-66
2023/04/11 00:55:35;;;;;;;;;;;;;;;13.39;67.35;100435.00;1041002;28;1376;-66
2023/04/11 00:56:26;;;;;;;;;;;;;;;13.28;66.24;100431.47;1040673;28;1504;-66
2023/04/11 00:57:16;;;;;;;;;;;;;;;13.36;67.71;100439.75;1041993;28;1361;-66
2023/04/11 00:58:07;;;;;;;;;;;;;;;13.33;66.23;100448.88;1040916;28;1487;-67
2023/04/11 00:58:58;;;;;;;;;;;;;;;13.30;68.93;100434.88;1040409;28;1298;-66
2023/04/11 00:59:49;;;;;;;;;;;;;;;13.19;67.60;100436.63;1044684;28;643;-67
2023/04/11 01:00:40;;;;;;;;;;;;;;;13.27;65.96;100444.00;1040713;28;1460;-67
2023/04/11 01:01:34;;;;;;;;;;;;;;;13.17;67.28;100443.09;1044831;28;673;-67
2023/04/11 01:02:25;;;;;;;;;;;;;;;13.24;68.25;100446.13;1040620;28;1366;-66
2023/04/11 01:03:15;;;;;;;;;;;;;;;13.24;67.03;100436.25;1041623;28;1335;-67
2023/04/11 01:04:06;;;;;;;;;;;;;;;13.34;68.21;100442.53;1044053;28;1520;-67
2023/04/11 01:04:58;;;;;;;;;;;;;;;13.29;67.63;100444.75;1043317;28;1277;-67
2023/04/11 01:05:48;;;;;;;;;;;;;;;13.16;66.92;100446.72;1040699;28;670;-67
2023/04/11 01:06:38;;;;;;;;;;;;;;;13.11;66.28;100452.41;1043184;28;859;-66
2023/04/11 01:07:29;;;;;;;;;;;;;;;13.05;66.27;100452.94;1041050;28;1037;-66
2023/04/11 01:08:19;;;;;;;;;;;;;;;13.00;68.07;100441.75;1041283;28;1456;-66
2023/04/11 01:09:10;;;;;;;;;;;;;;;13.04;67.59;100447.72;1040921;28;1401;-66
2023/04/11 01:10:00;;;;;;;;;;;;;;;13.06;65.88;100451.97;1041296;28;1352;-66
2023/04/11 01:10:51;;;;;;;;;;;;;;;13.07;66.24;100452.81;1042097;28;1405;-67
2023/04/11 01:11:41;;;;;;;;;;;;;;;13.01;67.73;100451.47;1044013;28;1453;-66
2023/04/11 01:12:32;;;;;;;;;;;;;;;12.99;66.87;100449.91;1040856;28;709;-66
2023/04/11 01:13:22;;;;;;;;;;;;;;;12.96;66.21;100455.50;1044300;28;969;-67
2023/04/11 01:14:12;;;;;;;;;;;;;;;12.96;68.75;100439.44;1041107;28;1281;-66
2023/04/11 01:15:03;;;;;;;;;;;;;;;13.05;66.96;100444.06;1044042;28;1447;-66
2023/04/11 01:15:53;;;;;;;;;;;;;;;13.02;66.77;100449.66;1041225;28;1512;-66
2023/04/11 01:16:46;;;;;;;;;;;;;;;13.04;65.52;100450.38;1040581;28;677;-67
2023/04/11 01:17:36;;;;;;;;;;;;;;;12.99;65.78;100449.91;1045005;28;1208;-66
2023/04/11 01:18:26;;;;;;;;;;;;;;;12.96;66.13;100471.53;1044119;28;1914;-66
2023/04/11 01:19:17;;;;;;;;;;;;;;;12.94;65.29;100452.09;1041928;28;1622;-67
2023/04/11 01:20:08;;;;;;;;;;;;;;;12.96;67.18;100444.81;1045359;28;677;-67
2023/04/11 01:20:59;;;;;;;;;;;;;;;12.96;65.75;100451.00;1044738;28;897;-67
2023/04/11 01:21:49;;;;;;;;;;;;;;;12.80;64.97;100443.38;1044930;28;678;-67
2023/04/11 01:22:40;;;;;;;;;;;;;;;13.07;67.49;100448.31;1044169;28;996;-67
2023/04/11 01:23:30;;;;;;;;;;;;;;;13.04;64.70;100447.72;1042473;28;677;-67
2023/04/11 01:24:21;;;;;;;;;;;;;;;12.99;65.72;100458.78;1044029;28;701;-67
2023/04/11 01:25:11;;;;;;;;;;;;;;;12.87;65.23;100446.41;1042561;28;653;-67
2023/04/11 01:26:02;;;;;;;;;;;;;;;13.00;68.05;100462.31;1040969;28;1213;-67
2023/04/11 01:26:52;;;;;;;;;;;;;;;13.14;68.15;100444.16;1042260;28;1503;-67
2023/04/11 01:27:43;;;;;;;;;;;;;;;13.14;64.38;100459.34;1043941;28;1241;-67
2023/04/11 01:28:34;;;;;;;;;;;;;;;13.13;65.70;100455.81;1042780;28;1607;-66
2023/04/11 01:29:24;;;;;;;;;;;;;;;13.34;66.70;100455.91;1041920;28;1393;-66
2023/04/11 01:30:15;;;;;;;;;;;;;;;13.15;64.15;100455.72;1044090;28;1599;-66
2023/04/11 01:31:07;;;;;;;;;;;;;;;13.18;64.26;100452.81;1044946;28;724;-66
2023/04/11 01:31:57;;;;;;;;;;;;;;;12.95;65.29;100453.78;1041203;28;1218;-66
2023/04/11 01:32:49;;;;;;;;;;;;;;;12.92;67.46;100462.06;1043715;28;1451;-66
2023/04/11 01:33:40;;;;;;;;;;;;;;;12.91;66.30;100453.19;1040263;28;1353;-66
2023/04/11 01:34:30;;;;;;;;;;;;;;;13.07;65.56;100455.50;1043760;28;1297;-66
2023/04/11 01:35:20;;;;;;;;;;;;;;;12.92;65.41;100462.91;1043851;28;1418;-66
2023/04/11 01:36:11;;;;;;;;;;;;;;;13.09;67.07;100448.16;1043460;28;1456;-65
2023/04/11 01:37:01;;;;;;;;;;;;;;;13.08;65.09;100459.84;1044064;28;1460;-66
2023/04/11 01:37:52;;;;;;;;;;;;;;;13.05;66.44;100444.91;1043932;28;1419;-67
2023/04/11 01:38:42;;;;;;;;;;;;;;;13.03;65.66;100456.72;1040897;28;1961;-67
2023/04/11 01:39:33;;;;;;;;;;;;;;;12.96;67.35;100459.03;1040666;28;1491;-66
2023/04/11 01:40:23;;;;;;;;;;;;;;;13.05;64.89;100454.75;1043950;28;1443;-66
2023/04/11 01:41:14;;;;;;;;;;;;;;;12.93;65.05;100461.09;1044763;28;773;-66
2023/04/11 01:42:04;;;;;;;;;;;;;;;13.07;67.47;100456.34;1044798;28;622;-66
2023/04/11 01:42:54;;;;;;;;;;;;;;;13.10;65.78;100452.53;1041050;28;1274;-66
2023/04/11 01:43:45;;;;;;;;;;;;;;;13.10;64.72;100452.53;1040231;28;1364;-67
2023/04/11 01:44:35;;;;;;;;;;;;;;;12.99;65.25;100471.31;1041939;28;1410;-66
2023/04/11 01:45:26;;;;;;;;;;;;;;;12.96;65.53;100474.22;1040991;28;941;-66
2023/04/11 01:46:16;;;;;;;;;;;;;;;12.93;65.25;100463.75;1040658;28;976;-66
2023/04/11 01:47:07;;;;;;;;;;;;;;;12.98;65.74;100469.59;1040645;28;655;-66
2023/04/11 01:47:57;;;;;;;;;;;;;;;12.89;66.25;100491.75;1044076;28;766;-66
2023/04/11 01:48:48;;;;;;;;;;;;;;;12.83;64.47;100472.53;1041014;28;1183;-67
2023/04/11 01:49:38;;;;;;;;;;;;;;;12.75;65.22;100466.94;1042616;28;1032;-67
2023/04/11 01:50:28;;;;;;;;;;;;;;;12.73;65.28;100481.41;1042312;28;593;-67
2023/04/11 01:51:19;;;;;;;;;;;;;;;12.70;66.09;100470.97;1041553;28;1341;-67
2023/04/11 01:52:09;;;;;;;;;;;;;;;12.92;66.53;100470.94;1043382;28;1297;-67
2023/04/11 01:53:00;;;;;;;;;;;;;;;13.11;67.57;100464.94;1043191;28;1475;-66
2023/04/11 01:53:50;;;;;;;;;;;;;;;13.21;64.30;100465.94;1044832;28;737;-66
2023/04/11 01:54:41;;;;;;;;;;;;;;;12.93;64.21;100469.97;1043529;28;842;-66
2023/04/11 01:55:31;;;;;;;;;;;;;;;13.01;65.52;100474.72;1041724;28;626;-66
2023/04/11 01:56:22;;;;;;;;;;;;;;;13.06;64.81;100477.88;1042186;28;1262;-66
2023/04/11 01:57:12;;;;;;;;;;;;;;;12.86;63.77;100479.47;1040695;28;1551;-66
2023/04/11 01:58:02;;;;;;;;;;;;;;;12.94;67.04;100468.13;1040898;28;1365;-66
2023/04/11 01:58:53;;;;;;;;;;;;;;;12.98;64.95;100483.81;1042233;28;1945;-67
2023/04/11 01:59:44;;;;;;;;;;;;;;;13.05;66.31;100469.00;1045078;28;1372;-67
2023/04/11 02:00:35;;;;;;;;;;;;;;;13.10;65.78;100482.81;1043771;28;1551;-66
2023/04/11 02:01:26;;;;;;;;;;;;;;;12.98;64.29;100478.47;1044834;28;617;-66
2023/04/11 02:02:16;;;;;;;;;;;;;;;12.98;65.88;100474.94;1041306;28;909;-67
2023/04/11 02:03:07;;;;;;;;;;;;;;;13.07;67.00;100479.56;1043710;28;1514;-67
2023/04/11 02:03:57;;;;;;;;;;;;;;;13.12;67.01;100488.91;1043745;28;1489;-67
2023/04/11 02:04:47;;;;;;;;;;;;;;;13.15;65.66;100495.88;1041077;28;753;-67
2023/04/11 02:05:38;;;;;;;;;;;;;;;13.17;66.63;100480.53;1040530;28;1023;-67
2023/04/11 02:06:29;;;;;;;;;;;;;;;13.08;66.00;100482.09;1043737;28;654;-67
2023/04/11 02:07:19;;;;;;;;;;;;;;;13.22;66.76;100475.66;1042886;28;1232;-67
2023/04/11 02:08:10;;;;;;;;;;;;;;;13.30;65.39;100481.22;1042226;28;1375;-67
2023/04/11 02:09:01;;;;;;;;;;;;;;;13.22;64.37;100494.41;1041550;28;1404;-67
2023/04/11 02:09:51;;;;;;;;;;;;;;;13.07;64.28;100490.28;1039745;28;1469;-67
2023/04/11 02:10:42;;;;;;;;;;;;;;;13.11;67.03;100483.66;1042933;28;1456;-67
2023/04/11 02:11:32;;;;;;;;;;;;;;;13.08;65.16;100490.13;1043222;28;1209;-67
2023/04/11 02:12:22;;;;;;;;;;;;;;;13.09;66.09;100493.66;1043640;28;1549;-67
2023/04/11 02:13:13;;;;;;;;;;;;;;;13.06;64.46;100499.28;1043548;28;1291;-67
2023/04/11 02:14:05;;;;;;;;;;;;;;;12.94;64.72;100494.88;1044654;28;659;-67
2023/04/11 02:14:55;;;;;;;;;;;;;;;12.98;65.68;100501.69;1044665;28;634;-67
2023/04/11 02:15:46;;;;;;;;;;;;;;;12.94;65.80;100502.91;1041035;28;1333;-67
2023/04/11 02:16:36;;;;;;;;;;;;;;;12.96;65.97;100503.63;1039922;28;1380;-67
2023/04/11 02:17:29;;;;;;;;;;;;;;;13.10;65.06;100500.69;1041378;28;1306;-67
2023/04/11 02:18:20;;;;;;;;;;;;;;;13.07;64.67;100503.66;1043656;28;1465;-67
2023/04/11 02:19:10;;;;;;;;;;;;;;;13.09;65.72;100505.19;1044659;28;1091;-67
2023/04/11 02:20:02;;;;;;;;;;;;;;;13.11;65.51;100511.28;1041381;28;1333;-67
2023/04/11 02:20:54;;;;;;;;;;;;;;;13.00;64.63;100503.28;1040593;28;1417;-67
2023/04/11 02:21:45;;;;;;;;;;;;;;;12.97;64.00;100510.69;1044019;28;1249;-67
2023/04/11 02:22:35;;;;;;;;;;;;;;;12.97;65.31;100511.53;1039420;28;635;-67
2023/04/11 02:23:26;;;;;;;;;;;;;;;12.88;65.46;100514.13;1041014;28;1302;-67
2023/04/11 02:24:16;;;;;;;;;;;;;;;12.90;66.18;100515.66;1043352;28;1507;-67
2023/04/11 02:25:07;;;;;;;;;;;;;;;12.99;67.22;100516.78;1044158;28;1206;-67
2023/04/11 02:25:57;;;;;;;;;;;;;;;13.06;65.61;100509.97;1041028;28;770;-67
2023/04/11 02:26:48;;;;;;;;;;;;;;;13.03;65.32;100519.09;1042384;28;1388;-67
2023/04/11 02:27:38;;;;;;;;;;;;;;;12.86;64.25;100511.56;1044473;28;1397;-67
2023/04/11 02:28:29;;;;;;;;;;;;;;;12.95;65.47;100508.13;1040462;28;1297;-67
2023/04/11 02:29:19;;;;;;;;;;;;;;;12.89;64.59;100518.50;1041249;28;1502;-67
2023/04/11 02:30:09;;;;;;;;;;;;;;;12.90;65.82;100522.88;1044560;28;801;-67
2023/04/11 02:31:00;;;;;;;;;;;;;;;12.81;64.37;100522.63;1041387;28;1369;-66
2023/04/11 02:31:50;;;;;;;;;;;;;;;12.84;64.88;100522.38;1042985;28;1392;-67
2023/04/11 02:32:41;;;;;;;;;;;;;;;12.84;65.80;100517.03;1044580;28;1428;-67
2023/04/11 02:33:31;;;;;;;;;;;;;;;12.73;64.12;100519.69;1041053;28;1352;-67
2023/04/11 02:34:22;;;;;;;;;;;;;;;12.76;64.68;100519.44;1042264;28;1377;-67
2023/04/11 02:35:12;;;;;;;;;;;;;;;12.76;65.62;100519.44;1042740;28;1507;-66
2023/04/11 02:36:02;;;;;;;;;;;;;;;12.80;65.42;100520.91;1043041;28;1394;-66
2023/04/11 02:36:53;;;;;;;;;;;;;;;12.74;65.15;100531.22;1041658;28;1511;-67
2023/04/11 02:37:43;;;;;;;;;;;;;;;12.81;65.99;100516.41;1041880;28;1221;-67
2023/04/11 02:38:36;;;;;;;;;;;;;;;12.84;64.50;100514.34;1045034;28;1894;-67
2023/04/11 02:39:26;;;;;;;;;;;;;;;12.96;66.72;100515.19;1043163;28;1454;-67
2023/04/11 02:40:17;;;;;;;;;;;;;;;13.07;64.69;100517.03;1043771;28;1559;-67
2023/04/11 02:41:07;;;;;;;;;;;;;;;13.08;65.04;100511.53;1044428;28;1424;-67
2023/04/11 02:41:58;;;;;;;;;;;;;;;13.02;64.25;100520.06;1040441;28;1234;-67
2023/04/11 02:42:48;;;;;;;;;;;;;;;12.86;65.48;100525.78;1041397;28;1377;-66
2023/04/11 02:43:38;;;;;;;;;;;;;;;12.84;64.66;100522.38;1043346;28;1428;-66
2023/04/11 02:44:29;;;;;;;;;;;;;;;12.79;65.89;100518.34;1043301;28;1531;-67
2023/04/11 02:45:20;;;;;;;;;;;;;;;12.95;67.05;100523.34;1043851;28;1392;-67
2023/04/11 02:46:11;;;;;;;;;;;;;;;13.00;65.06;100522.00;1042195;28;1349;-67
2023/04/11 02:47:01;;;;;;;;;;;;;;;12.93;64.85;100520.78;1040095;28;1483;-67
2023/04/11 02:47:51;;;;;;;;;;;;;;;12.97;65.99;100513.38;1041197;28;1373;-67
2023/04/11 02:48:42;;;;;;;;;;;;;;;13.01;65.43;100514.84;1041006;28;1538;-66
2023/04/11 02:49:32;;;;;;;;;;;;;;;13.00;65.51;100516.66;1041085;28;1377;-67
2023/04/11 02:50:24;;;;;;;;;;;;;;;12.93;64.15;100517.25;1040738;28;1390;-67
2023/04/11 02:51:15;;;;;;;;;;;;;;;12.92;65.19;100523.56;1043838;28;1202;-67
2023/04/11 02:52:05;;;;;;;;;;;;;;;12.99;66.18;100520.28;1040905;28;1548;-67
2023/04/11 02:52:56;;;;;;;;;;;;;;;12.92;64.09;100526.25;1041657;28;1441;-67
2023/04/11 02:53:46;;;;;;;;;;;;;;;12.71;65.44;100529.69;1041815;28;1567;-67
2023/04/11 02:54:37;;;;;;;;;;;;;;;12.70;65.33;100527.97;1044041;28;740;-67
2023/04/11 02:55:27;;;;;;;;;;;;;;;12.73;66.25;100522.34;1041527;28;2036;-66
2023/04/11 02:56:18;;;;;;;;;;;;;;;12.95;67.21;100520.66;1043102;28;1888;-66
2023/04/11 02:57:08;;;;;;;;;;;;;;;12.92;65.13;100529.78;1042236;28;653;-66
2023/04/11 02:57:58;;;;;;;;;;;;;;;12.91;64.69;100525.41;1043800;28;1150;-67
2023/04/11 02:59:29;;;;;;;;;;;;;;;13.03;64.95;100518.22;1220774;22;1594;-68
2023/04/11 03:00:20;;;;;;;;;;;;;;;12.99;65.91;100517.63;1028962;28;3875;-68
2023/04/11 03:01:17;;;;;;;;;;;;;;;12.93;64.51;100519.94;1035028;28;1222;-68
2023/04/11 03:02:07;;;;;;;;;;;;;;;12.88;64.13;100525.66;1036228;28;851;-68
2023/04/11 03:02:58;;;;;;;;;;;;;;;12.88;64.72;100522.13;1037125;28;913;-68
2023/04/11 03:03:48;;;;;;;;;;;;;;;12.82;64.32;100518.97;1037533;28;1319;-68
2023/04/11 03:04:38;;;;;;;;;;;;;;;12.70;64.73;100525.31;1036278;28;1396;-68
2023/04/11 03:05:29;;;;;;;;;;;;;;;12.65;64.22;100522.13;1036858;28;1108;-68
2023/04/11 03:06:20;;;;;;;;;;;;;;;12.59;64.54;100516.41;1033550;28;591;-68
2023/04/11 03:07:11;;;;;;;;;;;;;;;12.68;65.76;100521.03;1032903;28;615;-68
2023/04/11 03:08:01;;;;;;;;;;;;;;;12.84;67.04;100514.34;1036462;28;1102;-68
2023/04/11 03:08:52;;;;;;;;;;;;;;;13.04;64.72;100522.63;1036563;28;603;-68
2023/04/11 03:09:42;;;;;;;;;;;;;;;12.99;67.13;100524.78;1036750;28;660;-68
2023/04/11 03:10:33;;;;;;;;;;;;;;;12.92;64.66;100518.22;1036925;28;887;-68
2023/04/11 03:11:23;;;;;;;;;;;;;;;12.85;65.69;100521.41;1028520;28;670;-68
2023/04/11 03:12:14;;;;;;;;;;;;;;;12.88;64.31;100522.13;1029781;28;723;-68
2023/04/11 03:13:05;;;;;;;;;;;;;;;12.82;64.71;100518.97;1036749;28;1041;-68
2023/04/11 03:13:55;;;;;;;;;;;;;;;12.82;66.40;100512.78;1036520;28;755;-68
2023/04/11 03:14:46;;;;;;;;;;;;;;;12.98;65.87;100520.41;1036879;28;1152;-68
2023/04/11 03:15:36;;;;;;;;;;;;;;;12.95;64.97;100528.69;1036599;28;1559;-68
2023/04/11 03:16:27;;;;;;;;;;;;;;;12.87;66.89;100521.28;1035528;28;1177;-68
2023/04/11 03:17:17;;;;;;;;;;;;;;;12.83;65.21;100517.16;1037432;28;684;-69
2023/04/11 03:18:07;;;;;;;;;;;;;;;12.78;65.71;100527.34;1036865;28;1309;-69
2023/04/11 03:18:58;;;;;;;;;;;;;;;12.90;65.45;100521.03;1036892;28;1911;-68
2023/04/11 03:19:48;;;;;;;;;;;;;;;12.95;66.67;100520.66;1036586;28;1487;-68
2023/04/11 03:20:39;;;;;;;;;;;;;;;12.94;64.89;100518.97;1035020;28;1404;-68
2023/04/11 03:21:30;;;;;;;;;;;;;;;13.03;66.64;100531.59;1036869;28;653;-68
2023/04/11 03:22:22;;;;;;;;;;;;;;;12.93;63.59;100525.28;1031823;28;666;-68
2023/04/11 03:23:13;;;;;;;;;;;;;;;12.81;64.62;100533.31;1033725;28;719;-68
2023/04/11 03:24:03;;;;;;;;;;;;;;;12.79;65.61;100529.91;1032867;28;697;-68
2023/04/11 03:24:53;;;;;;;;;;;;;;;12.84;64.88;100541.09;1037659;28;649;-68
2023/04/11 03:25:44;;;;;;;;;;;;;;;12.75;63.87;100522.25;1034126;28;688;-68
2023/04/11 03:26:35;;;;;;;;;;;;;;;12.61;64.69;100525.16;1037503;28;1024;-68
2023/04/11 03:27:25;;;;;;;;;;;;;;;12.68;66.42;100532.59;1037684;28;684;-69
2023/04/11 03:28:16;;;;;;;;;;;;;;;12.78;63.76;100528.19;1034214;28;1187;-69
2023/04/11 03:29:06;;;;;;;;;;;;;;;12.78;65.00;100540.72;1036498;28;622;-69
2023/04/11 03:29:57;;;;;;;;;;;;;;;12.74;63.60;100541.94;1034257;28;1212;-70
2023/04/11 03:30:47;;;;;;;;;;;;;;;12.68;64.48;100532.59;1037617;28;663;-69
2023/04/11 03:31:38;;;;;;;;;;;;;;;12.68;64.96;100532.59;1036301;28;704;-70
2023/04/11 03:32:28;;;;;;;;;;;;;;;12.57;64.35;100534.38;1034965;28;1344;-69
2023/04/11 03:33:18;;;;;;;;;;;;;;;12.67;66.56;100530.03;1036995;28;1006;-69
2023/04/11 03:34:09;;;;;;;;;;;;;;;12.70;63.94;100536.00;1036839;28;1500;-69
2023/04/11 03:35:00;;;;;;;;;;;;;;;12.60;64.06;100534.16;1035625;28;1297;-69
2023/04/11 03:35:51;;;;;;;;;;;;;;;12.62;66.07;100534.88;1033643;28;688;-69
2023/04/11 03:36:41;;;;;;;;;;;;;;;12.65;65.73;100537.31;1035379;28;1001;-69
2023/04/11 03:37:31;;;;;;;;;;;;;;;12.60;64.19;100534.16;1037508;28;1487;-68
2023/04/11 03:38:22;;;;;;;;;;;;;;;12.65;64.69;100543.53;1034630;28;1030;-69
2023/04/11 03:39:12;;;;;;;;;;;;;;;12.66;64.85;100534.53;1037525;28;696;-69
2023/04/11 03:40:03;;;;;;;;;;;;;;;12.69;65.20;100545.00;1035596;28;1139;-69
2023/04/11 03:40:53;;;;;;;;;;;;;;;12.67;63.76;100543.41;1037558;28;650;-68
2023/04/11 03:41:44;;;;;;;;;;;;;;;12.60;64.00;100535.00;1036058;28;1128;-68
2023/04/11 03:42:34;;;;;;;;;;;;;;;12.75;65.37;100528.44;1038045;28;1440;-68
2023/04/11 03:43:24;;;;;;;;;;;;;;;12.74;64.74;100541.94;1034723;28;672;-68
2023/04/11 03:44:15;;;;;;;;;;;;;;;12.68;63.44;100543.28;1033640;28;1037;-68
2023/04/11 03:45:05;;;;;;;;;;;;;;;12.70;65.41;100536.00;1038170;28;692;-68
2023/04/11 03:45:56;;;;;;;;;;;;;;;12.73;64.61;100543.75;1037866;28;1542;-68
2023/04/11 03:46:46;;;;;;;;;;;;;;;12.66;63.64;100549.72;1037603;28;664;-68
2023/04/11 03:47:36;;;;;;;;;;;;;;;12.58;63.42;100541.44;1037737;28;1138;-68
2023/04/11 03:48:28;;;;;;;;;;;;;;;12.54;64.63;100545.34;1036488;28;1504;-68
2023/04/11 03:49:18;;;;;;;;;;;;;;;12.73;65.67;100549.09;1037434;28;709;-68
2023/04/11 03:50:09;;;;;;;;;;;;;;;12.70;65.68;100546.69;1034083;28;693;-68
2023/04/11 03:50:59;;;;;;;;;;;;;;;12.73;64.64;100551.78;1034708;28;705;-68
2023/04/11 03:51:50;;;;;;;;;;;;;;;12.72;63.59;100552.75;1037419;28;1325;-70
2023/04/11 03:52:40;;;;;;;;;;;;;;;12.62;64.44;100548.25;1031778;28;1192;-68
2023/04/11 03:53:31;;;;;;;;;;;;;;;12.66;64.65;100547.91;1029448;28;1314;-69
2023/04/11 03:54:21;;;;;;;;;;;;;;;12.59;65.07;100548.47;1029161;28;689;-69
2023/04/11 03:55:12;;;;;;;;;;;;;;;12.68;65.94;100543.28;1034958;28;1109;-69
2023/04/11 03:56:03;;;;;;;;;;;;;;;12.70;64.03;100552.03;1034073;28;693;-69
2023/04/11 03:56:53;;;;;;;;;;;;;;;12.60;65.43;100544.84;1037608;28;726;-68
2023/04/11 03:57:43;;;;;;;;;;;;;;;12.58;64.06;100552.97;1033113;28;1388;-68
2023/04/11 03:58:34;;;;;;;;;;;;;;;12.57;65.97;100564.63;1036755;28;1902;-68
2023/04/11 03:59:25;;;;;;;;;;;;;;;12.58;64.14;100555.66;1037397;28;1036;-68
2023/04/11 04:00:15;;;;;;;;;;;;;;;12.50;64.60;100556.25;1037336;28;969;-68
2023/04/11 04:01:06;;;;;;;;;;;;;;;12.46;65.04;100548.59;1037558;28;716;-68
2023/04/11 04:01:56;;;;;;;;;;;;;;;12.44;63.84;100558.53;1037220;28;1238;-68
2023/04/11 04:02:47;;;;;;;;;;;;;;;12.37;64.46;100559.97;1037455;28;1590;-68
2023/04/11 04:03:37;;;;;;;;;;;;;;;12.51;66.32;100557.13;1036730;28;942;-68
2023/04/11 04:04:28;;;;;;;;;;;;;;;12.49;63.80;100567.06;1034135;28;691;-68
2023/04/11 04:05:18;;;;;;;;;;;;;;;12.35;64.23;100568.13;1037455;28;1093;-68
2023/04/11 04:06:08;;;;;;;;;;;;;;;12.33;65.10;100569.22;1037457;28;724;-68
2023/04/11 04:07:00;;;;;;;;;;;;;;;12.47;64.01;100577.88;1037263;28;1435;-69
2023/04/11 04:07:51;;;;;;;;;;;;;;;12.45;63.80;100574.47;1037536;28;1315;-68
2023/04/11 04:08:41;;;;;;;;;;;;;;;12.47;64.70;100579.69;1036280;28;1333;-69
2023/04/11 04:09:32;;;;;;;;;;;;;;;12.44;63.53;100571.91;1033202;28;641;-69
2023/04/11 04:10:22;;;;;;;;;;;;;;;12.41;64.85;100575.66;1030100;28;684;-69
2023/04/11 04:11:12;;;;;;;;;;;;;;;12.46;64.58;100576.16;1035706;28;1161;-68
2023/04/11 04:12:03;;;;;;;;;;;;;;;12.48;65.24;100570.72;1033566;28;678;-69
2023/04/11 04:12:53;;;;;;;;;;;;;;;12.48;63.75;100573.38;1036786;28;1200;-68
2023/04/11 04:13:44;;;;;;;;;;;;;;;12.43;63.03;100579.06;1033546;28;700;-69
2023/04/11 04:14:34;;;;;;;;;;;;;;;12.42;64.91;100572.03;1038087;28;707;-69
2023/04/11 04:15:25;;;;;;;;;;;;;;;12.43;65.66;100568.38;1033428;28;753;-69
2023/04/11 04:16:16;;;;;;;;;;;;;;;12.45;65.10;100579.81;1035626;28;1054;-68
2023/04/11 04:17:07;;;;;;;;;;;;;;;12.62;64.69;100586.53;1036937;28;641;-69
2023/04/11 04:17:57;;;;;;;;;;;;;;;12.59;63.94;100578.75;1032323;28;1484;-69
2023/04/11 04:18:47;;;;;;;;;;;;;;;12.71;65.83;100569.78;1033055;28;1968;-69
2023/04/11 04:19:38;;;;;;;;;;;;;;;12.72;64.09;100579.47;1035085;28;1321;-69
2023/04/11 04:20:29;;;;;;;;;;;;;;;12.68;64.84;100583.38;1033953;28;613;-69
2023/04/11 04:21:19;;;;;;;;;;;;;;;12.61;63.52;100583.97;1035523;28;1096;-69
2023/04/11 04:22:10;;;;;;;;;;;;;;;12.54;65.80;100582.75;1033426;28;866;-68
2023/04/11 04:23:03;;;;;;;;;;;;;;;12.59;64.86;100586.75;1036873;28;1163;-68
2023/04/11 04:23:53;;;;;;;;;;;;;;;12.66;64.55;100584.47;1033896;28;632;-68
2023/04/11 04:24:47;;;;;;;;;;;;;;;12.59;64.08;100597.44;1032332;28;651;-68
2023/04/11 04:25:41;;;;;;;;;;;;;;;12.71;66.04;100595.66;1033373;28;653;-68